Terminal Aerodrome Forecast
Issued by NWS

Home | Current Version | Previous Version | Text Only | Print | Product List | Glossary On
Versions: 1 2 3 4 5 6 7 8 9 10 11 12 13 14 15 16 17
221
FTUS46 KPDT 161721
TAFDLS
TAF
KDLS 161721Z 1618/1718 VRB03KT 4SM BR OVC028
      TEMPO 1619/1623 P6SM NSW SCT035
     FM170200 10003KT 6SM BR OVC020
     FM170900 VRB03KT 5SM -SGPL BR BKN015 OVC060=

USA.gov is the U.S. government's official web portal to all federal, state and local government web resources and services.